Time;durP1;ratioP1;P1;durP2;ratioP2;P2;SDS_P1;SDS_P2;PMS_P1;PMS_P2;Temp;Humidity;BMP_temperature;BMP_pressure;BME280_temperature;BME280_humidity;BME280_pressure;Samples;Min_cycle;Max_cycle;Signal;HPM_P1;HPM_P2
2024/04/16 00:03:52;;;;;;;;;;;;;;;;;;;;;
2024/04/16 00:07:44;;;;;;;;;;;;;;;;;;;;;
2024/04/16 00:11:39;;;;;;;;;;;;;;;;;;;;;
2024/04/16 00:15:47;;;;;;;3.20;1.70;;;;;;;9.84;83.50;98626.80;126185;1298;636099;-63
2024/04/16 00:19:35;;;;;;;5.80;2.40;;;;;;;9.79;83.51;98631.62;127402;1284;128272;-63
2024/04/16 00:23:19;;;;;;;;;;;;;;;;;;;;;
2024/04/16 00:27:30;;;;;;;;;;;;;;;;;;;;;
2024/04/16 00:31:22;;;;;;;5.70;2.10;;;;;;;9.63;82.57;98623.86;121437;1323;114998;-62
2024/04/16 00:35:15;;;;;;;3.50;1.70;;;;;;;9.55;82.49;98613.88;124601;1328;115011;-63
2024/04/16 00:39:12;;;;;;;;;;;;;;;;;;;;;
2024/04/16 00:42:59;;;;;;;2.80;1.30;;;;;;;9.43;82.50;98634.38;124431;1313;128745;-63
2024/04/16 00:51:10;;;;;;;;;;;;;;;;;;;;;
2024/04/16 00:55:07;;;;;;;;;;;;;;;;;;;;;
2024/04/16 00:59:13;;;;;;;;;;;;;;;;;;;;;
2024/04/16 01:02:47;;;;;;;;;;;;;;;;;;;;;
2024/04/16 01:06:45;;;;;;;1.60;0.70;;;;;;;9.13;79.80;98629.35;124861;1306;114898;-62
2024/04/16 01:14:47;;;;;;;2.50;0.50;;;;;;;9.07;78.77;98653.48;126393;1294;635889;-64
2024/04/16 01:18:01;;;;;;;1.90;0.80;;;;;;;8.99;78.03;98670.90;128687;1266;128407;-63
2024/04/16 01:21:52;;;;;;;1.40;0.30;;;;;;;8.91;77.39;98685.02;129100;1272;114724;-63
2024/04/16 01:25:46;;;;;;;;;;;;;;;;;;;;;
2024/04/16 01:29:35;;;;;;;;;;;;;;;;;;;;;
2024/04/16 01:32:54;;;;;;;2.10;0.30;;;;;;;8.52;75.63;98708.98;128599;1276;114849;-63
2024/04/16 01:36:58;;;;;;;0.50;0.40;;;;;;;8.39;75.44;98705.35;128079;1295;114901;-62
2024/04/16 01:40:54;;;;;;;1.00;0.10;;;;;;;8.24;75.37;98688.93;126864;1287;128227;-63
2024/04/16 01:44:47;;;;;;;;;;;;;;;;;;;;;
2024/04/16 01:53:08;;;;;;;1.20;0.40;;;;;;;7.79;74.80;98702.09;126124;1291;636362;-64
2024/04/16 01:56:50;;;;;;;1.30;0.20;;;;;;;7.58;74.63;98709.13;128727;1273;128515;-63
2024/04/16 02:00:39;;;;;;;;;;;;;;;;;;;;;
2024/04/16 02:04:28;;;;;;;;;;;;;;;;;;;;;
2024/04/16 02:08:22;;;;;;;1.50;0.60;;;;;;;7.11;75.08;98729.04;123298;1286;114953;-63
2024/04/16 02:12:24;;;;;;;2.90;0.30;;;;;;;7.02;75.27;98723.71;126200;1309;114974;-64
2024/04/16 02:16:23;;;;;;;2.50;0.60;;;;;;;6.91;74.94;98724.95;125631;1320;114899;-62
2024/04/16 02:20:15;;;;;;;1.00;0.50;;;;;;;6.76;75.25;98732.38;125197;1302;130492;-62
2024/04/16 02:23:48;;;;;;;;;;;;;;;;;;;;;
2024/04/16 02:27:39;;;;;;;1.00;0.70;;;;;;;6.50;75.19;98736.52;125845;1310;114927;-64
2024/04/16 02:31:23;;;;;;;2.10;0.90;;;;;;;6.38;75.35;98746.27;125210;1325;114939;-62
2024/04/16 02:35:07;;;;;;;2.50;0.90;;;;;;;6.29;75.52;98753.02;125616;1322;114999;-62
2024/04/16 02:38:58;;;;;;;;;;;;;;;;;;;;;
2024/04/16 02:42:35;;;;;;;;;;;;;;;;;;;;;
2024/04/16 02:46:27;;;;;;;4.10;1.50;;;;;;;5.99;75.71;98742.76;124924;1325;115003;-61
2024/04/16 02:50:01;;;;;;;2.90;0.80;;;;;;;5.89;75.53;98757.13;125522;1305;114819;-62
2024/04/16 02:53:45;;;;;;;;;;;;;;;;;;;;;
2024/04/16 02:58:02;;;;;;;2.20;1.10;;;;;;;5.69;75.63;98755.02;126238;1295;128089;-64
2024/04/16 03:01:34;;;;;;;;;;;;;;;;;;;;;
2024/04/16 03:05:21;;;;;;;;;;;;;;;;;;;;;
2024/04/16 03:09:23;;;;;;;5.00;1.50;;;;;;;5.39;75.65;98754.16;125516;1315;114838;-64
2024/04/16 03:13:17;;;;;;;3.50;1.20;;;;;;;5.29;75.52;98755.56;125352;1320;114956;-64
2024/04/16 03:17:18;;;;;;;2.70;1.10;;;;;;;5.21;75.75;98759.33;125511;1305;129748;-64
2024/04/16 03:21:09;;;;;;;1.80;1.60;;;;;;;5.13;75.51;98757.26;125763;1295;114968;-64
2024/04/16 03:25:03;;;;;;;2.10;1.50;;;;;;;5.07;75.60;98768.59;125791;1297;115385;-64
2024/04/16 03:28:43;;;;;;;2.90;1.70;;;;;;;5.00;75.61;98761.66;125478;1295;114971;-64
2024/04/16 03:32:16;;;;;;;;;;;;;;;;;;;;;
2024/04/16 03:36:06;;;;;;;3.60;1.60;;;;;;;4.87;75.77;98775.58;125406;1310;129880;-62
2024/04/16 03:39:21;;;;;;;2.50;1.10;;;;;;;4.82;76.05;98770.73;124595;1321;114928;-63
2024/04/16 03:42:54;;;;;;;;;;;;;;;;;;;;;
2024/04/16 03:46:47;;;;;;;2.20;1.20;;;;;;;4.73;76.29;98799.45;124311;1327;115223;-63
2024/04/16 03:50:34;;;;;;;;;;;;;;;;;;;;;
2024/04/16 03:54:37;;;;;;;;;;;;;;;;;;;;;
2024/04/16 03:58:21;;;;;;;3.40;1.50;;;;;;;4.72;76.55;98819.49;128910;1293;128853;-63
2024/04/16 04:02:21;;;;;;;;;;;;;;;;;;;;;
2024/04/16 04:06:13;;;;;;;3.60;1.30;;;;;;;4.86;76.44;98840.04;127582;1285;115072;-63
2024/04/16 04:09:46;;;;;;;4.80;1.50;;;;;;;4.94;76.17;98852.23;122342;1306;114982;-63
2024/04/16 04:13:54;;;;;;;;;;;;;;;;;;;;;
2024/04/16 04:17:22;;;;;;;4.20;1.30;;;;;;;5.13;76.13;98850.55;124099;1331;114998;-63
2024/04/16 04:20:58;;;;;;;2.40;1.60;;;;;;;5.17;75.78;98850.14;124775;1324;128551;-63
2024/04/16 04:24:25;;;;;;;2.50;1.30;;;;;;;5.22;75.63;98855.79;123584;1322;114853;-64
2024/04/16 04:32:43;;;;;;;;;;;;;;;;;;;;;
2024/04/16 04:36:25;;;;;;;;;;;;;;;;;;;;;
2024/04/16 04:39:31;;;;;;;2.30;1.40;;;;;;;5.41;74.89;98840.80;128457;1277;114875;-62
2024/04/16 04:42:50;;;;;;;;;;;;;;;;;;;;;
2024/04/16 04:46:30;;;;;;;4.00;1.90;;;;;;;5.44;74.67;98869.66;124777;1292;5380342;-63
2024/04/16 04:50:17;;;;;;;;;;;;;;;;;;;;;
2024/04/16 04:54:04;;;;;;;3.60;2.20;;;;;;;5.62;74.65;98847.85;128137;1281;128975;-63
2024/04/16 04:57:15;;;;;;;2.90;1.10;;;;;;;5.77;74.24;98849.21;128340;1280;114914;-65
2024/04/16 05:00:28;;;;;;;2.00;1.10;;;;;;;5.93;73.98;98852.94;127991;1299;114843;-63
2024/04/16 05:03:58;;;;;;;2.60;1.20;;;;;;;6.16;73.62;98850.90;128222;1282;114862;-62
2024/04/16 05:07:19;;;;;;;2.50;1.20;;;;;;;6.52;73.11;98846.40;127200;1300;114882;-63
2024/04/16 05:10:46;;;;;;;1.70;0.80;;;;;;;7.07;72.88;98843.63;127252;1304;128391;-64
2024/04/16 05:14:29;;;;;;;2.00;0.80;;;;;;;7.67;72.21;98851.95;127559;1290;114945;-66
2024/04/16 05:18:08;;;;;;;1.90;0.80;;;;;;;8.20;71.43;98857.05;127258;1306;114937;-64
2024/04/16 05:21:59;;;;;;;2.10;0.70;;;;;;;8.63;70.65;98861.83;127115;1284;114791;-63
2024/04/16 05:26:04;;;;;;;;;;;;;;;;;;;;;
2024/04/16 05:30:06;;;;;;;;;;;;;;;;;;;;;
2024/04/16 05:34:02;;;;;;;;;;;;;;;;;;;;;
2024/04/16 05:37:15;;;;;;;;;;;;;;;;;;;;;
2024/04/16 05:40:57;;;;;;;3.50;1.50;;;;;;;9.11;67.26;98865.98;125529;1296;115349;-63
2024/04/16 05:44:53;;;;;;;;;;;;;;;;;;;;;
2024/04/16 05:48:41;;;;;;;2.70;0.60;;;;;;;9.01;66.15;98853.81;125841;1296;129830;-64
2024/04/16 05:52:11;;;;;;;4.60;0.70;;;;;;;9.00;65.60;98860.70;125595;1298;114865;-64
2024/04/16 05:55:48;;;;;;;2.90;0.50;;;;;;;9.05;65.65;98863.58;126101;1298;114924;-64
2024/04/16 05:59:35;;;;;;;2.10;0.50;;;;;;;9.19;65.00;98867.63;125744;1311;114959;-65
2024/04/16 06:03:26;;;;;;;;;;;;;;;;;;;;;
2024/04/16 06:07:17;;;;;;;2.60;0.80;;;;;;;9.52;64.44;98863.59;125898;1298;129663;-64
2024/04/16 06:10:48;;;;;;;1.10;0.60;;;;;;;9.72;64.31;98858.83;126201;1293;114958;-64
2024/04/16 06:14:50;;;;;;;2.20;0.60;;;;;;;9.99;64.12;98850.00;126922;1302;114968;-64
2024/04/16 06:18:43;;;;;;;1.90;0.50;;;;;;;10.49;63.16;98852.03;126773;1287;114955;-54
2024/04/16 06:22:44;;;;;;;;;;;;;;;;;;;;;
2024/04/16 06:26:46;;;;;;;3.10;1.40;;;;;;;11.66;62.23;98853.89;125990;1304;129019;-63
2024/04/16 06:30:19;;;;;;;5.60;1.30;;;;;;;11.83;61.42;98849.91;125908;1314;114870;-63
2024/04/16 06:34:05;;;;;;;3.60;0.50;;;;;;;11.84;60.60;98857.13;125671;1298;114923;-65
2024/04/16 06:37:56;;;;;;;3.30;0.50;;;;;;;11.89;59.91;98849.59;125430;1312;115039;-64
2024/04/16 06:41:45;;;;;;;4.50;0.90;;;;;;;12.18;59.60;98858.86;124769;1309;114980;-64
2024/04/16 06:45:10;;;;;;;2.10;0.40;;;;;;;12.70;58.88;98844.83;124214;1315;129703;-64
2024/04/16 06:48:41;;;;;;;2.50;0.40;;;;;;;13.03;58.08;98851.45;124657;1329;114975;-64
2024/04/16 06:52:43;;;;;;;3.20;0.60;;;;;;;13.23;57.77;98839.02;124555;1326;115213;-67
2024/04/16 06:56:41;;;;;;;3.60;0.50;;;;;;;13.23;56.83;98853.89;125220;1323;114814;-65
2024/04/16 07:00:31;;;;;;;2.40;0.80;;;;;;;13.04;56.44;98857.61;124574;1316;115330;-66
2024/04/16 07:04:33;;;;;;;0.90;0.50;;;;;;;12.76;55.85;98869.23;124826;1302;128152;-66
2024/04/16 07:08:34;;;;;;;2.10;0.60;;;;;;;12.56;56.21;98868.67;125081;1320;114802;-65
2024/04/16 07:12:25;;;;;;;1.50;0.40;;;;;;;12.40;55.23;98861.02;125436;1305;115026;-65
2024/04/16 07:20:37;;;;;;;1.90;0.60;;;;;;;11.98;55.39;98874.33;126318;1291;636530;-66
2024/04/16 07:24:38;;;;;;;3.70;0.50;;;;;;;11.84;54.82;98856.56;128391;1288;129063;-66
2024/04/16 07:28:43;;;;;;;1.20;0.40;;;;;;;11.90;54.93;98850.59;127447;1290;114761;-65
2024/04/16 07:32:44;;;;;;;;;;;;;;;;;;;;;
2024/04/16 07:36:39;;;;;;;2.10;0.50;;;;;;;12.27;54.79;98872.64;125557;1307;114986;-65
2024/04/16 07:40:32;;;;;;;;;;;;;;;;;;;;;
2024/04/16 07:48:50;;;;;;;;;;;;;;;;;;;;;
2024/04/16 07:52:53;;;;;;;;;;;;;;;;;;;;;
2024/04/16 07:56:52;;;;;;;1.50;0.50;;;;;;;11.63;52.75;98874.00;126973;1288;115002;-66
2024/04/16 08:00:31;;;;;;;;;;;;;;;;;;;;;
2024/04/16 08:04:18;;;;;;;3.00;0.70;;;;;;;11.75;53.08;98869.46;125098;1314;114805;-80
2024/04/16 08:07:52;;;;;;;;;;;;;;;;;;;;;
2024/04/16 08:11:26;;;;;;;;;;;;;;;12.24;52.32;98875.56;124370;1319;129885;-72
2024/04/16 08:15:18;;;;;;;1.10;0.70;;;;;;;12.59;52.26;98870.95;124905;1314;114901;-72
2024/04/16 08:19:39;;;;;;;1.40;0.40;;;;;;;12.88;51.95;98868.11;126890;1291;636437;-69
2024/04/16 08:23:22;;;;;;;;;;;;;;;;;;;;;
2024/04/16 08:27:25;;;;;;;2.30;0.80;;;;;;;13.76;51.73;98857.71;132671;1274;112934;-69
2024/04/16 08:35:27;;;;;;;4.50;0.70;;;;;;;14.75;50.43;98851.79;124875;1295;115481;-68
2024/04/16 08:43:53;;;;;;;1.60;0.60;;;;;;;16.00;49.25;98839.54;125594;1304;635920;-69
2024/04/16 08:47:48;;;;;;;;;;;;;;;;;;;;;
2024/04/16 08:51:23;;;;;;;1.00;0.50;;;;;;;16.30;48.24;98847.70;126326;1295;114871;-69
2024/04/16 08:55:12;;;;;;;4.70;0.50;;;;;;;16.52;48.28;98838.48;126132;1299;640393;-70
2024/04/16 08:58:27;;;;;;;5.20;0.40;;;;;;;16.73;48.14;98842.06;129167;1273;127882;-71
2024/04/16 09:01:46;;;;;;;6.50;0.80;;;;;;;16.89;47.59;98836.73;128996;1273;114902;-71
2024/04/16 09:05:07;;;;;;;1.40;0.30;;;;;;;16.98;47.05;98844.02;128941;1273;115120;-71
2024/04/16 09:08:24;;;;;;;3.10;0.60;;;;;;;16.98;46.15;98836.78;126100;1264;5419982;-70
2024/04/16 09:11:55;;;;;;;4.30;0.60;;;;;;;17.00;45.81;98831.69;130311;1260;114958;-70
2024/04/16 09:15:03;;;;;;;1.40;0.50;;;;;;;17.06;45.23;98838.08;129921;1260;114935;-71
2024/04/16 09:18:38;;;;;;;2.40;0.50;;;;;;;17.14;45.18;98832.02;130190;1254;128972;-70
2024/04/16 09:22:05;;;;;;;2.90;0.50;;;;;;;17.32;44.61;98831.14;130249;1260;114908;-70
2024/04/16 09:25:23;;;;;;;1.20;0.40;;;;;;;17.25;43.52;98832.83;130217;1257;114838;-71
2024/04/16 09:28:27;;;;;;;;;;;;;;;16.97;43.09;98833.81;130216;1254;114920;-71
2024/04/16 09:31:53;;;;;;;1.60;0.40;;;;;;;16.81;43.34;98836.44;130288;1257;114831;-70
2024/04/16 09:35:54;;;;;;;;;;;;;;;;;;;;;
2024/04/16 09:39:31;;;;;;;;;;;;;;;;;;;;;
2024/04/16 09:43:07;;;;;;;1.90;0.60;;;;;;;16.08;42.83;98834.52;129502;1265;114992;-70
2024/04/16 09:46:55;;;;;;;;;;;;;;;;;;;;;
2024/04/16 09:50:00;;;;;;;6.50;0.50;;;;;;;15.47;42.14;98834.20;129495;1267;114852;-70
2024/04/16 09:53:33;;;;;;;2.50;1.30;;;;;;;15.39;42.43;98833.73;129607;1262;129103;-70
2024/04/16 09:56:54;;;;;;;2.10;1.00;;;;;;;15.24;42.35;98836.04;129308;1267;114928;-70
2024/04/16 10:00:34;;;;;;;2.10;0.70;;;;;;;15.10;41.95;98838.38;129082;1271;114901;-69
2024/04/16 10:07:35;;;;;;;1.40;0.50;;;;;;;15.02;41.64;98834.40;128741;1295;114938;-71
2024/04/16 10:10:37;;;;;;;5.10;0.60;;;;;;;15.11;41.80;98829.79;128666;1271;127891;-69
2024/04/16 10:13:52;;;;;;;3.00;1.30;;;;;;;15.28;41.71;98830.05;128664;1276;114839;-71
2024/04/16 10:17:09;;;;;;;2.20;0.60;;;;;;;15.49;41.67;98821.25;128473;1279;114873;-71
2024/04/16 10:20:17;;;;;;;2.10;0.70;;;;;;;15.65;41.37;98810.02;128933;1272;114817;-70
2024/04/16 10:23:32;;;;;;;2.10;0.30;;;;;;;15.82;41.33;98802.86;129111;1273;115148;-70
2024/04/16 10:27:04;;;;;;;1.60;0.50;;;;;;;15.98;41.15;98805.69;128852;1273;128925;-71
2024/04/16 10:30:16;;;;;;;1.70;0.60;;;;;;;16.27;41.43;98800.76;128997;1273;115009;-69
2024/04/16 10:33:44;;;;;;;1.50;0.30;;;;;;;16.57;41.20;98800.92;129275;1262;115006;-70
2024/04/16 10:37:05;;;;;;;1.40;0.30;;;;;;;16.85;41.04;98795.06;129152;1273;114821;-72
2024/04/16 10:40:48;;;;;;;1.50;0.40;;;;;;;17.11;40.92;98795.27;129440;1262;114814;-69
2024/04/16 10:44:44;;;;;;;2.80;0.40;;;;;;;17.31;40.44;98795.80;129057;1260;127897;-70
2024/04/16 10:48:36;;;;;;;;;;;;;;;;;;;;;
2024/04/16 10:51:49;;;;;;;1.20;0.40;;;;;;;17.35;39.21;98794.99;129098;1272;114977;-70
2024/04/16 10:55:37;;;;;;;;;;;;;;;;;;;;;
2024/04/16 10:59:25;;;;;;;2.20;0.40;;;;;;;17.43;38.46;98786.97;128623;1271;115053;-69
2024/04/16 11:03:11;;;;;;;;;;;;;;;;;;;;;
2024/04/16 11:06:48;;;;;;;1.70;0.50;;;;;;;17.42;37.98;98787.60;128581;1280;114937;-70
2024/04/16 11:10:13;;;;;;;2.10;0.50;;;;;;;17.24;37.64;98787.58;128410;1277;114933;-72
2024/04/16 11:14:15;;;;;;;2.70;0.50;;;;;;;17.16;37.84;98782.24;128838;1272;114937;-71
2024/04/16 11:18:06;;;;;;;2.60;0.50;;;;;;;17.08;37.57;98778.58;128760;1270;115015;-69
2024/04/16 11:22:15;;;;;;;1.40;0.50;;;;;;;16.97;37.50;98775.50;128557;1277;128757;-69
2024/04/16 11:25:49;;;;;;;;;;;;;;;;;;;;;
2024/04/16 11:29:56;;;;;;;2.70;0.70;;;;;;;17.04;37.60;98778.47;127855;1283;115112;-69
2024/04/16 11:33:45;;;;;;;2.50;0.70;;;;;;;17.02;37.31;98776.08;126971;1289;114824;-70
2024/04/16 11:38:13;;;;;;;1.70;0.60;;;;;;;16.87;37.50;98773.38;126851;1306;114939;-67
2024/04/16 11:41:31;;;;;;;2.40;0.50;;;;;;;16.81;37.64;98780.00;127966;1283;129745;-66
2024/04/16 11:45:18;;;;;;;3.10;0.50;;;;;;;16.60;37.47;98784.54;127820;1300;114792;-68
2024/04/16 11:48:44;;;;;;;2.80;0.50;;;;;;;16.45;37.69;98796.67;127777;1286;114894;-69
2024/04/16 11:52:34;;;;;;;2.90;0.50;;;;;;;16.33;38.27;98800.89;126881;1305;115010;-68
2024/04/16 11:56:07;;;;;;;1.50;0.50;;;;;;;16.35;38.79;98807.37;126200;1315;114966;-68
2024/04/16 11:59:58;;;;;;;2.10;0.60;;;;;;;16.39;38.90;98810.39;126470;1311;129499;-67
2024/04/16 12:03:33;;;;;;;2.10;0.70;;;;;;;16.36;39.06;98806.02;126511;1296;115100;-70
2024/04/16 12:07:28;;;;;;;3.70;0.60;;;;;;;16.48;39.53;98801.81;127018;1288;114885;-71
2024/04/16 12:11:29;;;;;;;0.80;0.40;;;;;;;16.46;39.30;98809.56;126441;1310;115295;-70
2024/04/16 12:15:19;;;;;;;;;;;;;;;;;;;;;
2024/04/16 12:18:59;;;;;;;1.30;0.40;;;;;;;16.51;39.40;98811.06;125842;1301;129876;-69
2024/04/16 12:31:04;;;;;;;;;;;;;;;;;;;;;
2024/04/16 12:35:01;;;;;;;;;;;;;;;;;;;;;
2024/04/16 12:38:39;;;;;;;;;;;;;;;;;;;;;
2024/04/16 12:42:35;;;;;;;3.20;0.50;;;;;;;16.44;39.03;98805.74;123243;1293;115020;-70
2024/04/16 12:46:35;;;;;;;1.90;0.60;;;;;;;16.36;38.98;98802.21;127895;1302;114860;-70
2024/04/16 12:50:28;;;;;;;1.50;0.50;;;;;;;16.34;39.16;98802.63;127828;1302;114869;-69
2024/04/16 12:54:19;;;;;;;;;;;;;;;;;;;;;
2024/04/16 12:58:20;;;;;;;2.90;0.60;;;;;;;16.43;39.46;98797.98;126072;1301;114961;-70
2024/04/16 13:02:20;;;;;;;2.10;0.40;;;;;;;16.49;38.93;98803.80;125645;1298;114856;-67
2024/04/16 13:06:15;;;;;;;1.20;0.50;;;;;;;16.51;38.69;98797.17;125091;1327;115069;-69
2024/04/16 13:10:03;;;;;;;2.00;0.50;;;;;;;16.56;38.63;98794.63;124382;1315;114926;-70
2024/04/16 13:13:54;;;;;;;;;;;;;;;;;;;;;
2024/04/16 13:17:33;;;;;;;;;;;;;;;;;;;;;
2024/04/16 13:21:00;;;;;;;2.70;0.80;;;;;;;16.30;38.11;98770.18;126128;1298;114907;-71
2024/04/16 13:24:54;;;;;;;;;;;;;;;;;;;;;
2024/04/16 13:32:55;;;;;;;2.70;0.50;;;;;;;16.37;39.11;98772.25;125903;1299;635878;-67
2024/04/16 13:36:50;;;;;;;;;;;;;;;;;;;;;
2024/04/16 13:40:38;;;;;;;4.30;0.80;;;;;;;16.59;38.21;98765.73;127289;1299;114858;-68
2024/04/16 13:44:16;;;;;;;3.10;0.70;;;;;;;16.75;38.28;98760.69;127585;1286;114926;-68
2024/04/16 13:48:08;;;;;;;;;;;;;;;;;;;;;
2024/04/16 13:52:24;;;;;;;;;;;;;;;;;;;;;
2024/04/16 13:55:58;;;;;;;2.60;0.60;;;;;;;16.45;38.33;98764.26;126394;1308;114975;-67
2024/04/16 13:59:43;;;;;;;1.60;0.50;;;;;;;16.36;38.44;98762.11;125473;1323;129980;-68
2024/04/16 14:02:44;;;;;;;1.80;1.00;;;;;;;16.33;38.37;98759.30;124996;1311;115020;-68
2024/04/16 14:05:45;;;;;;;2.70;1.10;;;;;;;16.38;38.54;98755.71;125209;1323;115001;-71
2024/04/16 14:08:55;;;;;;;2.60;1.10;;;;;;;16.44;38.68;98758.44;125003;1310;115231;-69
2024/04/16 14:11:56;;;;;;;3.00;0.40;;;;;;;16.42;37.99;98744.70;125727;1304;115094;-71
2024/04/16 14:15:00;;;;;;;1.90;0.80;;;;;;;16.40;38.04;98748.87;126363;1298;115429;-70
2024/04/16 14:18:23;;;;;;;1.80;1.00;;;;;;;16.42;37.76;98743.49;126243;1298;114946;-70
2024/04/16 14:21:23;;;;;;;3.10;0.60;;;;;;;16.37;37.56;98748.80;126266;1297;127973;-69
2024/04/16 14:24:50;;;;;;;2.00;0.40;;;;;;;16.25;37.10;98743.61;126345;1316;114978;-70
2024/04/16 14:28:22;;;;;;;;;;;;;;;;;;;;;
2024/04/16 14:31:58;;;;;;;;;;;;;;;;;;;;;
2024/04/16 14:35:10;;;;;;;2.20;0.80;;;;;;;16.24;36.59;98747.86;127184;1298;114933;-69
2024/04/16 14:38:20;;;;;;;2.80;0.40;;;;;;;16.28;36.39;98745.20;128455;1291;114865;-68
2024/04/16 14:41:37;;;;;;;2.60;0.50;;;;;;;16.19;35.63;98746.64;129011;1273;128591;-70
2024/04/16 14:44:42;;;;;;;1.20;0.30;;;;;;;16.04;35.82;98750.92;129178;1273;114774;-69
2024/04/16 14:47:56;;;;;;;2.10;0.30;;;;;;;15.87;35.30;98750.20;129327;1267;114916;-71
2024/04/16 14:51:05;;;;;;;3.80;0.70;;;;;;;15.63;34.89;98753.05;129193;1291;115185;-72
2024/04/16 14:54:56;;;;;;;;;;;;;;;;;;;;;
2024/04/16 14:58:36;;;;;;;1.70;0.50;;;;;;;15.35;35.72;98747.05;129036;1273;127726;-71
2024/04/16 15:02:11;;;;;;;2.50;1.10;;;;;;;15.29;35.42;98739.34;128300;1280;114755;-69
2024/04/16 15:05:45;;;;;;;2.30;0.90;;;;;;;15.15;35.09;98736.10;128722;1277;114895;-71
2024/04/16 15:08:47;;;;;;;2.40;1.10;;;;;;;15.05;35.43;98734.40;128627;1277;114861;-69
2024/04/16 15:12:20;;;;;;;3.40;1.20;;;;;;;14.95;35.75;98731.30;128634;1281;115279;-70
2024/04/16 15:15:23;;;;;;;2.60;0.90;;;;;;;14.85;36.16;98727.41;128621;1273;128633;-70
2024/04/16 15:18:57;;;;;;;2.00;0.80;;;;;;;14.81;36.17;98725.98;129566;1268;114860;-69
2024/04/16 15:22:21;;;;;;;2.50;0.60;;;;;;;14.72;36.55;98734.11;129385;1280;114874;-70
2024/04/16 15:25:29;;;;;;;2.10;0.70;;;;;;;14.64;36.36;98740.60;129505;1270;114901;-69
2024/04/16 15:28:41;;;;;;;3.40;1.20;;;;;;;14.53;35.93;98746.84;129457;1268;114826;-69
2024/04/16 15:31:47;;;;;;;1.30;0.50;;;;;;;14.45;36.25;98748.75;129393;1266;128445;-70
2024/04/16 15:34:52;;;;;;;1.30;0.30;;;;;;;14.44;36.41;98752.61;129459;1268;114732;-69
2024/04/16 15:38:07;;;;;;;2.80;0.70;;;;;;;14.50;36.48;98753.04;129478;1282;115179;-71
2024/04/16 15:41:20;;;;;;;;;;;;;;;;;;;;;
2024/04/16 15:45:05;;;;;;;1.60;0.50;;;;;;;14.66;36.20;98750.84;129769;1264;114756;-69
2024/04/16 15:48:08;;;;;;;2.50;0.50;;;;;;;14.66;36.32;98749.59;129130;1289;129733;-70
2024/04/16 15:51:11;;;;;;;1.90;0.70;;;;;;;14.62;36.15;98742.45;129214;1270;114945;-68
2024/04/16 15:54:39;;;;;;;2.80;0.60;;;;;;;14.54;35.98;98744.22;129169;1267;114836;-69
2024/04/16 15:57:41;;;;;;;1.40;0.30;;;;;;;14.43;36.14;98740.15;129302;1266;115089;-70
2024/04/16 16:00:47;;;;;;;3.00;0.60;;;;;;;14.33;36.05;98736.94;129264;1267;116098;-68
2024/04/16 16:03:55;;;;;;;1.50;0.40;;;;;;;14.23;36.35;98733.69;129304;1270;128652;-69
2024/04/16 16:07:01;;;;;;;4.10;0.70;;;;;;;14.11;36.25;98734.95;129435;1289;114847;-68
2024/04/16 16:10:12;;;;;;;2.00;0.50;;;;;;;13.96;36.23;98732.73;129523;1270;114811;-69
2024/04/16 16:13:18;;;;;;;2.50;0.70;;;;;;;13.78;36.25;98731.77;129445;1266;114799;-71
2024/04/16 16:16:27;;;;;;;3.70;0.60;;;;;;;13.62;36.38;98730.08;129842;1270;114720;-71
2024/04/16 16:20:30;;;;;;;4.40;0.80;;;;;;;13.50;36.68;98735.30;129284;1289;127585;-70
2024/04/16 16:24:17;;;;;;;3.10;0.70;;;;;;;13.37;36.86;98740.43;128980;1272;114897;-67
2024/04/16 16:27:23;;;;;;;1.80;0.60;;;;;;;13.19;36.87;98736.13;129406;1268;114789;-68
2024/04/16 16:30:35;;;;;;;3.50;0.70;;;;;;;13.05;37.09;98734.23;129446;1264;114970;-67
2024/04/16 16:34:27;;;;;;;2.10;0.80;;;;;;;12.91;37.31;98728.42;129394;1287;114928;-68
2024/04/16 16:38:15;;;;;;;;;;;;;;;;;;;;;
2024/04/16 16:42:02;;;;;;;1.70;0.90;;;;;;;12.53;37.88;98721.76;128299;1270;114958;-67
2024/04/16 16:45:38;;;;;;;;;;;;;;;;;;;;;
2024/04/16 16:49:49;;;;;;;;;;;;;;;;;;;;;
2024/04/16 16:53:53;;;;;;;2.50;0.60;;;;;;;11.98;38.94;98726.90;128133;1290;114899;-68
2024/04/16 16:57:09;;;;;;;4.50;1.40;;;;;;;11.83;39.30;98723.76;127329;1291;127893;-68
2024/04/16 17:01:14;;;;;;;4.50;1.10;;;;;;;11.75;39.71;98721.05;127725;1286;114832;-69
2024/04/16 17:05:08;;;;;;;3.40;0.80;;;;;;;11.64;39.82;98721.16;126836;1305;114813;-67
2024/04/16 17:09:09;;;;;;;26.90;6.40;;;;;;;11.57;40.22;98729.20;125894;1316;114981;-69
2024/04/16 17:13:09;;;;;;;;;;;;;;;;;;;;;
2024/04/16 17:17:02;;;;;;;5.30;1.10;;;;;;;11.44;41.05;98728.67;124520;1323;128550;-68
2024/04/16 17:25:10;;;;;;;2.70;1.20;;;;;;;11.30;41.46;98730.48;129284;1284;127829;-68
2024/04/16 17:29:05;;;;;;;;;;;;;;;;;;;;;
2024/04/16 17:32:58;;;;;;;2.20;0.70;;;;;;;11.18;42.16;98734.05;128281;1273;114906;-69
2024/04/16 17:36:37;;;;;;;;;;;;;;;;;;;;;
2024/04/16 17:40:41;;;;;;;2.80;0.80;;;;;;;11.05;42.49;98731.48;126813;1312;114922;-67
2024/04/16 17:44:40;;;;;;;;;;;;;;;;;;;;;
2024/04/16 17:48:14;;;;;;;3.10;1.60;;;;;;;10.86;43.46;98733.13;124649;1307;128529;-69
2024/04/16 17:51:35;;;;;;;;;;;;;;;;;;;;;
2024/04/16 17:55:19;;;;;;;;;;;;;;;;;;;;;
2024/04/16 18:03:35;;;;;;;2.60;1.30;;;;;;;10.47;44.00;98751.35;126749;1291;636715;-71
2024/04/16 18:07:27;;;;;;;2.40;1.10;;;;;;;10.34;43.64;98754.77;127788;1280;127647;-70
2024/04/16 18:11:07;;;;;;;2.50;1.10;;;;;;;10.23;44.23;98755.20;127137;1289;114936;-71
2024/04/16 18:14:55;;;;;;;5.30;1.90;;;;;;;10.16;44.43;98763.77;126855;1289;114943;-70
2024/04/16 18:18:33;;;;;;;6.10;3.00;;;;;;;10.09;44.84;98765.17;123705;1285;114965;-71
2024/04/16 18:22:33;;;;;;;16.20;5.40;;;;;;;10.05;44.73;98769.37;127577;1286;114942;-69
2024/04/16 18:26:26;;;;;;;;;;;;;;;;;;;;;
2024/04/16 18:30:14;;;;;;;5.50;2.90;;;;;;;9.97;45.75;98777.27;126473;1309;128871;-69
2024/04/16 18:34:07;;;;;;;;;;;;;;;;;;;;;
2024/04/16 18:38:00;;;;;;;3.20;1.80;;;;;;;9.87;46.29;98784.88;126193;1301;114925;-69
2024/04/16 18:41:41;;;;;;;;;;;;;;;;;;;;;
2024/04/16 18:45:43;;;;;;;4.00;1.30;;;;;;;9.82;47.04;98793.42;126697;1311;114793;-68
2024/04/16 18:49:40;;;;;;;6.20;1.80;;;;;;;9.80;47.62;98800.40;126760;1293;129819;-70
2024/04/16 18:53:28;;;;;;;5.80;2.30;;;;;;;9.76;48.15;98802.06;125933;1302;115042;-69
2024/04/16 18:56:33;;;;;;;7.20;2.00;;;;;;;9.71;48.31;98801.01;125893;1320;114787;-67
2024/04/16 19:00:12;;;;;;;;;;;;;;;;;;;;;
2024/04/16 19:04:16;;;;;;;3.10;1.60;;;;;;;9.61;49.05;98801.34;125283;1307;114994;-69
2024/04/16 19:08:06;;;;;;;5.90;2.30;;;;;;;9.56;48.86;98805.41;124990;1326;129708;-69
2024/04/16 19:16:13;;;;;;;3.00;1.40;;;;;;;9.47;49.73;98794.62;126558;1294;636365;-71
2024/04/16 19:24:17;;;;;;;3.50;1.20;;;;;;;9.37;50.22;98786.04;128631;1277;115163;-67
2024/04/16 19:28:19;;;;;;;4.60;1.70;;;;;;;9.33;50.31;98781.89;123741;1281;5501805;-70
2024/04/16 19:32:20;;;;;;;3.90;1.40;;;;;;;9.29;50.80;98779.62;126235;1299;115394;-72
2024/04/16 19:36:09;;;;;;;;;;;;;;;;;;;;;
2024/04/16 19:40:02;;;;;;;4.30;1.80;;;;;;;9.24;51.04;98768.41;125054;1310;130118;-70
2024/04/16 19:43:54;;;;;;;4.50;1.30;;;;;;;9.21;50.96;98761.88;124691;1313;114862;-69
2024/04/16 19:51:30;;;;;;;8.20;2.80;;;;;;;9.10;51.21;98763.33;126547;1295;636924;-67
2024/04/16 19:55:17;;;;;;;7.10;2.90;;;;;;;9.00;51.49;98765.58;129311;1288;129158;-70
2024/04/16 19:59:21;;;;;;;6.80;3.90;;;;;;;8.93;51.67;98761.45;128887;1275;114855;-68
2024/04/16 20:03:23;;;;;;;7.00;3.10;;;;;;;8.83;51.71;98763.84;128075;1282;114746;-67
2024/04/16 20:06:49;;;;;;;7.00;4.20;;;;;;;8.69;52.13;98762.64;122919;1293;114902;-67
2024/04/16 20:10:16;;;;;;;5.50;2.60;;;;;;;8.59;52.28;98763.67;125779;1319;115495;-68
2024/04/16 20:13:57;;;;;;;;;;;;;;;;;;;;;
2024/04/16 20:17:42;;;;;;;8.40;2.80;;;;;;;8.33;52.59;98771.88;125666;1311;129932;-70
2024/04/16 20:21:10;;;;;;;9.30;2.80;;;;;;;8.22;52.49;98772.11;125986;1303;114983;-67
2024/04/16 20:24:16;;;;;;;9.30;2.70;;;;;;;8.12;52.98;98767.43;126043;1302;114872;-67
2024/04/16 20:27:22;;;;;;;5.40;2.60;;;;;;;8.01;52.80;98762.92;126030;1313;114955;-65
2024/04/16 20:30:23;;;;;;;4.70;1.70;;;;;;;7.93;53.36;98758.67;125664;1319;114917;-64
2024/04/16 20:33:24;;;;;;;2.20;1.40;;;;;;;7.85;53.10;98761.98;125787;1308;114863;-63
2024/04/16 20:36:29;;;;;;;3.40;1.50;;;;;;;7.78;53.38;98760.67;125858;1302;129682;-63
2024/04/16 20:40:09;;;;;;;;;;;;;;;;;;;;;
2024/04/16 20:43:39;;;;;;;2.40;1.00;;;;;;;7.60;53.53;98772.60;127112;1285;114724;-63
2024/04/16 20:46:45;;;;;;;3.10;1.50;;;;;;;7.52;53.97;98776.85;128369;1286;114869;-63
2024/04/16 20:49:53;;;;;;;3.30;1.20;;;;;;;7.45;54.18;98777.45;129182;1276;114757;-64